Time;durP1;ratioP1;P1;durP2;ratioP2;P2;SDS_P1;SDS_P2;PMS_P1;PMS_P2;Temp;Humidity;BMP_temperature;BMP_pressure;BME280_temperature;BME280_humidity;BME280_pressure;Samples;Min_cycle;Max_cycle;Signal;HPM_P1;HPM_P2
2021/11/14 00:00:26;;;;;;;52.78;25.48;;;8.40;99.90;;;;;;5047127;28;20475;-73
2021/11/14 00:02:54;;;;;;;49.43;24.07;;;8.40;99.90;;;;;;5046674;28;20029;-73
2021/11/14 00:05:20;;;;;;;47.88;24.23;;;8.40;99.90;;;;;;5046340;28;20307;-73
2021/11/14 00:07:46;;;;;;;48.20;23.88;;;8.40;99.90;;;;;;5049269;28;20063;-73
2021/11/14 00:10:12;;;;;;;45.92;23.83;;;8.40;99.90;;;;;;5046439;28;20108;-73
2021/11/14 00:12:39;;;;;;;54.40;25.15;;;8.40;99.90;;;;;;5048748;28;20485;-73
2021/11/14 00:15:07;;;;;;;48.42;24.45;;;8.40;99.90;;;;;;5045736;28;20022;-73
2021/11/14 00:17:33;;;;;;;51.10;23.88;;;8.40;99.90;;;;;;5048313;28;20025;-73
2021/11/14 00:19:59;;;;;;;47.42;24.42;;;8.40;99.90;;;;;;5047949;28;20376;-73
2021/11/14 00:22:25;;;;;;;45.42;23.08;;;8.40;99.90;;;;;;5046562;28;20068;-73
2021/11/14 00:24:51;;;;;;;47.75;23.80;;;8.40;99.90;;;;;;5047688;28;20067;-73
2021/11/14 00:27:16;;;;;;;42.25;23.58;;;8.40;99.90;;;;;;5043976;28;20029;-73
2021/11/14 00:29:42;;;;;;;45.60;23.02;;;8.40;99.90;;;;;;5046986;28;20033;-73
2021/11/14 00:32:08;;;;;;;47.45;24.27;;;8.30;99.90;;;;;;5047559;28;20029;-73
2021/11/14 00:34:35;;;;;;;50.70;23.30;;;8.30;99.90;;;;;;5044719;28;20029;-73
2021/11/14 00:37:01;;;;;;;45.80;23.10;;;8.30;99.90;;;;;;5049592;28;20032;-73
2021/11/14 00:39:27;;;;;;;46.50;23.80;;;8.30;99.90;;;;;;5049377;28;20048;-73
2021/11/14 00:41:52;;;;;;;47.17;22.80;;;8.30;99.90;;;;;;5049933;28;20475;-73
2021/11/14 00:44:19;;;;;;;46.85;21.95;;;8.30;99.90;;;;;;5052506;28;20032;-73
2021/11/14 00:46:46;;;;;;;47.58;22.75;;;8.30;99.90;;;;;;5052226;28;20033;-73
2021/11/14 00:49:11;;;;;;;43.67;22.45;;;8.30;99.90;;;;;;5049067;28;20044;-73
2021/11/14 00:51:38;;;;;;;50.28;24.52;;;8.30;99.90;;;;;;5050064;28;20391;-73
2021/11/14 00:54:05;;;;;;;45.90;22.60;;;8.30;99.90;;;;;;5050217;28;20029;-73
2021/11/14 00:56:30;;;;;;;54.00;26.30;;;8.30;99.90;;;;;;5047943;28;20028;-73
2021/11/14 00:58:57;;;;;;;51.10;23.40;;;8.30;99.90;;;;;;5047302;28;20029;-73
2021/11/14 01:01:23;;;;;;;44.60;22.40;;;8.30;99.90;;;;;;5043412;28;20037;-73
2021/11/14 01:03:50;;;;;;;49.22;24.25;;;8.30;99.90;;;;;;5045217;28;20705;-73
2021/11/14 01:06:16;;;;;;;44.10;22.65;;;8.30;99.90;;;;;;5047502;28;20040;-74
2021/11/14 01:08:42;;;;;;;46.28;23.17;;;8.30;99.90;;;;;;5043859;28;20041;-73
2021/11/14 01:11:08;;;;;;;47.45;21.73;;;8.30;99.90;;;;;;5044871;28;20085;-74
2021/11/14 01:13:36;;;;;;;44.38;21.77;;;8.30;99.90;;;;;;5050841;28;20563;-74
2021/11/14 01:16:03;;;;;;;51.35;24.27;;;8.30;99.90;;;;;;5049736;28;20414;-73
2021/11/14 01:18:29;;;;;;;44.08;21.77;;;8.30;99.90;;;;;;5048090;28;20025;-74
2021/11/14 01:20:58;;;;;;;44.47;21.98;;;8.20;99.90;;;;;;5044767;28;20035;-74
2021/11/14 01:23:25;;;;;;;40.35;20.15;;;8.20;99.90;;;;;;5046192;28;20044;-74
2021/11/14 01:25:51;;;;;;;42.03;21.27;;;8.20;99.90;;;;;;5045261;28;20035;-73
2021/11/14 01:28:18;;;;;;;40.83;20.92;;;8.20;99.90;;;;;;5046978;28;20036;-74
2021/11/14 01:30:47;;;;;;;44.05;21.67;;;8.30;99.90;;;;;;5045130;28;20033;-74
2021/11/14 01:33:14;;;;;;;44.50;20.70;;;8.30;99.90;;;;;;5048002;28;20021;-74
2021/11/14 01:35:41;;;;;;;38.65;20.33;;;8.30;99.90;;;;;;5045725;28;20025;-74
2021/11/14 01:38:08;;;;;;;39.78;19.90;;;8.30;99.90;;;;;;5047294;28;20116;-74
2021/11/14 01:40:40;;;;;;;38.90;21.08;;;8.30;99.90;;;;;;5049009;28;20021;-73
2021/11/14 01:43:09;;;;;;;42.75;21.73;;;8.30;99.90;;;;;;5045387;28;20441;-73
2021/11/14 01:45:35;;;;;;;40.20;20.40;;;8.30;99.90;;;;;;5049858;28;20033;-73
2021/11/14 01:48:01;;;;;;;42.58;21.35;;;8.30;99.90;;;;;;5045808;28;20036;-73
2021/11/14 01:50:27;;;;;;;41.35;20.02;;;8.30;99.90;;;;;;5047788;28;20441;-73
2021/11/14 01:52:54;;;;;;;37.92;19.65;;;8.30;99.90;;;;;;5046267;28;20051;-74
2021/11/14 01:55:24;;;;;;;41.95;19.73;;;8.30;99.90;;;;;;5049002;28;20047;-74
2021/11/14 01:57:50;;;;;;;44.50;20.80;;;8.30;99.90;;;;;;5047676;28;20028;-74
2021/11/14 02:00:27;;;;;;;39.47;21.13;;;8.30;99.90;;;;;;5043850;28;20283;-74
2021/11/14 02:02:54;;;;;;;43.80;19.80;;;8.30;99.90;;;;;;5045271;28;20118;-73
2021/11/14 02:05:23;;;;;;;41.97;20.45;;;8.20;99.90;;;;;;5044186;28;20487;-73
2021/11/14 02:07:54;;;;;;;42.05;20.98;;;8.20;99.90;;;;;;5047282;28;20573;-73
2021/11/14 02:10:20;;;;;;;;;;;8.30;99.90;;;;;;5044803;28;20433;-73
2021/11/14 02:12:46;;;;;;;46.90;21.50;;;8.30;99.90;;;;;;5043775;28;20134;-74
2021/11/14 02:15:11;;;;;;;42.83;22.20;;;8.20;99.90;;;;;;5043460;28;20029;-74
2021/11/14 02:17:37;;;;;;;44.53;22.20;;;8.20;99.90;;;;;;5047155;28;20339;-73
2021/11/14 02:20:06;;;;;;;43.65;20.58;;;8.20;99.90;;;;;;5045567;28;20111;-74
2021/11/14 02:22:32;;;;;;;44.67;21.02;;;8.20;99.90;;;;;;5044147;28;20120;-74
2021/11/14 02:24:58;;;;;;;45.90;22.48;;;8.20;99.90;;;;;;5045429;28;20108;-73
2021/11/14 02:27:24;;;;;;;45.60;21.40;;;8.20;99.90;;;;;;5047369;28;20060;-73
2021/11/14 02:29:50;;;;;;;43.60;21.42;;;8.20;99.90;;;;;;5048893;28;20068;-74
2021/11/14 02:32:16;;;;;;;43.83;21.63;;;8.20;99.90;;;;;;5043807;28;20534;-73
2021/11/14 02:34:41;;;;;;;53.75;24.13;;;8.20;99.90;;;;;;5043274;28;20025;-74
2021/11/14 02:37:08;;;;;;;44.45;21.35;;;8.20;99.90;;;;;;5048993;28;20399;-74
2021/11/14 02:39:34;;;;;;;44.20;22.73;;;8.20;99.90;;;;;;5046847;28;20025;-74
2021/11/14 02:42:01;;;;;;;50.35;21.58;;;8.20;99.90;;;;;;5043062;28;20041;-73
2021/11/14 02:44:28;;;;;;;45.22;20.38;;;8.20;99.90;;;;;;5048066;28;20040;-73
2021/11/14 02:46:54;;;;;;;47.97;22.23;;;8.20;99.90;;;;;;5042316;28;20048;-74
2021/11/14 02:49:20;;;;;;;46.80;22.67;;;8.20;99.90;;;;;;5045816;28;20078;-73
2021/11/14 02:51:46;;;;;;;47.13;21.75;;;8.10;99.90;;;;;;5043393;28;20029;-73
2021/11/14 02:54:12;;;;;;;47.67;22.17;;;8.10;99.90;;;;;;5045108;28;20414;-74
2021/11/14 02:56:38;;;;;;;49.60;21.60;;;8.10;99.90;;;;;;5048155;28;20029;-73
2021/11/14 02:59:04;;;;;;;49.90;22.67;;;8.10;99.90;;;;;;5043660;28;20044;-73
2021/11/14 03:01:42;;;;;;;53.83;23.05;;;8.10;99.90;;;;;;5046282;28;20406;-73
2021/11/14 03:04:17;;;;;;;47.38;20.38;;;8.10;99.90;;;;;;5043368;28;20387;-73
2021/11/14 03:06:43;;;;;;;47.97;21.40;;;8.10;99.90;;;;;;5043881;28;20091;-73
2021/11/14 03:09:09;;;;;;;48.58;21.67;;;8.10;99.90;;;;;;5047885;28;20025;-74
2021/11/14 03:11:35;;;;;;;40.10;21.00;;;8.20;99.90;;;;;;5038779;28;20060;-74
2021/11/14 03:14:01;;;;;;;51.53;21.38;;;8.20;99.90;;;;;;5041683;28;20029;-74
2021/11/14 03:16:27;;;;;;;43.70;20.83;;;8.20;99.90;;;;;;5043638;28;20082;-73
2021/11/14 03:18:55;;;;;;;48.35;22.35;;;8.20;99.90;;;;;;5042923;28;20440;-74
2021/11/14 03:21:22;;;;;;;46.05;21.27;;;8.20;99.90;;;;;;5042945;28;20043;-74
2021/11/14 03:23:48;;;;;;;45.00;19.70;;;8.20;99.90;;;;;;5045243;28;20056;-73
2021/11/14 03:26:14;;;;;;;43.38;18.95;;;8.20;99.90;;;;;;5044197;28;20477;-73
2021/11/14 03:28:41;;;;;;;50.03;20.00;;;8.30;99.90;;;;;;5043929;28;20033;-74
2021/11/14 03:31:07;;;;;;;41.97;19.45;;;8.30;99.90;;;;;;5046512;28;20025;-74
2021/11/14 03:33:33;;;;;;;46.30;19.85;;;8.30;99.90;;;;;;5047635;28;20040;-73
2021/11/14 03:36:11;;;;;;;43.88;19.70;;;8.30;99.90;;;;;;5045948;28;20490;-74
2021/11/14 03:38:46;;;;;;;37.92;18.15;;;8.30;99.90;;;;;;5044210;28;20045;-73
2021/11/14 03:41:15;;;;;;;39.47;18.52;;;8.30;99.90;;;;;;5044976;28;20387;-73
2021/11/14 03:43:42;;;;;;;40.70;18.35;;;8.30;99.90;;;;;;5044534;28;20021;-74
2021/11/14 03:46:08;;;;;;;40.03;17.77;;;8.30;99.90;;;;;;5042205;28;20029;-73
2021/11/14 03:48:36;;;;;;;38.05;18.55;;;8.30;99.90;;;;;;5045527;28;20032;-74
2021/11/14 03:51:04;;;;;;;35.28;17.95;;;8.30;99.90;;;;;;5044414;28;20091;-74
2021/11/14 03:53:30;;;;;;;38.78;17.98;;;8.30;99.90;;;;;;5047247;28;20459;-73
2021/11/14 03:55:56;;;;;;;34.83;16.63;;;8.30;99.90;;;;;;5044437;28;20028;-73
2021/11/14 03:58:22;;;;;;;38.53;17.67;;;8.30;99.90;;;;;;5044642;28;20036;-74
2021/11/14 04:00:52;;;;;;;35.03;17.20;;;8.30;99.90;;;;;;5045475;28;20037;-74
2021/11/14 04:03:18;;;;;;;35.40;16.50;;;8.30;99.90;;;;;;5042649;28;20040;-73
2021/11/14 04:05:44;;;;;;;35.63;15.80;;;8.30;99.90;;;;;;5047075;28;20032;-73
2021/11/14 04:08:16;;;;;;;38.35;17.50;;;8.30;99.90;;;;;;5047156;28;20036;-74
2021/11/14 04:10:44;;;;;;;37.90;16.98;;;8.30;99.90;;;;;;5044698;28;20398;-73
2021/11/14 04:13:10;;;;;;;42.95;17.38;;;8.30;99.90;;;;;;5045257;28;20483;-74
2021/11/14 04:15:36;;;;;;;48.47;18.95;;;8.30;99.90;;;;;;5043388;28;20036;-74
2021/11/14 04:18:02;;;;;;;41.17;19.23;;;8.20;99.90;;;;;;5045698;28;20043;-74
2021/11/14 04:20:30;;;;;;;44.90;19.00;;;8.30;99.90;;;;;;5043401;28;20415;-74
2021/11/14 04:22:57;;;;;;;48.47;20.13;;;8.30;99.90;;;;;;5047137;28;20078;-73
2021/11/14 04:25:27;;;;;;;55.47;20.83;;;8.20;99.90;;;;;;5041566;28;20430;-73
2021/11/14 04:27:55;;;;;;;53.35;20.85;;;8.20;99.90;;;;;;5044927;28;20605;-73
2021/11/14 04:30:21;;;;;;;63.22;23.10;;;8.20;99.90;;;;;;5045066;28;20167;-73
2021/11/14 04:32:47;;;;;;;59.00;22.27;;;8.20;99.90;;;;;;5046603;28;20479;-74
2021/11/14 04:35:13;;;;;;;60.45;22.52;;;8.20;99.90;;;;;;5044236;28;20025;-74
2021/11/14 04:37:39;;;;;;;58.80;24.00;;;8.20;99.90;;;;;;5045704;28;20048;-73
2021/11/14 04:40:07;;;;;;;59.30;23.15;;;8.20;99.90;;;;;;5042559;28;20029;-74
2021/11/14 04:42:34;;;;;;;53.90;21.08;;;8.20;99.90;;;;;;5044459;28;20087;-74
2021/11/14 04:44:59;;;;;;;58.28;21.77;;;8.20;99.90;;;;;;5044830;28;20029;-74
2021/11/14 04:47:26;;;;;;;60.85;23.95;;;8.20;99.90;;;;;;5047139;28;20031;-73
2021/11/14 04:49:52;;;;;;;65.38;23.33;;;8.20;99.90;;;;;;5042948;28;20066;-74
2021/11/14 04:52:17;;;;;;;58.50;22.48;;;8.20;99.90;;;;;;5045974;28;20071;-73
2021/11/14 04:54:43;;;;;;;64.95;24.25;;;8.20;99.90;;;;;;5043104;28;20021;-74
2021/11/14 04:57:09;;;;;;;57.55;23.40;;;8.20;99.90;;;;;;5046531;28;20025;-73
2021/11/14 04:59:35;;;;;;;58.88;24.00;;;8.20;99.90;;;;;;5042949;28;20056;-73
2021/11/14 05:02:01;;;;;;;61.88;23.27;;;8.30;99.90;;;;;;5045020;28;20040;-73
2021/11/14 05:04:27;;;;;;;61.63;24.90;;;8.20;99.90;;;;;;5043495;28;20064;-74
2021/11/14 05:06:53;;;;;;;68.90;26.27;;;8.30;99.90;;;;;;5046291;28;20565;-74
2021/11/14 05:09:19;;;;;;;64.18;24.73;;;8.30;99.90;;;;;;5045647;28;20108;-73
2021/11/14 05:11:44;;;;;;;57.13;23.23;;;8.20;99.90;;;;;;5041517;28;20029;-74
2021/11/14 05:14:10;;;;;;;61.95;24.25;;;8.20;99.90;;;;;;5044174;28;20032;-74
2021/11/14 05:16:36;;;;;;;67.32;25.45;;;8.20;99.90;;;;;;5043344;28;20025;-74
2021/11/14 05:19:02;;;;;;;67.95;25.83;;;8.20;99.90;;;;;;5044966;28;20041;-73
2021/11/14 05:21:27;;;;;;;65.07;24.50;;;8.20;99.90;;;;;;5044279;28;20033;-73
2021/11/14 05:23:54;;;;;;;63.05;24.27;;;8.30;99.90;;;;;;5046163;28;20040;-73
2021/11/14 05:26:19;;;;;;;66.22;24.95;;;8.30;99.90;;;;;;5049147;28;20036;-72
2021/11/14 05:28:45;;;;;;;57.00;24.90;;;8.30;99.90;;;;;;5046807;28;20029;-73
2021/11/14 05:31:11;;;;;;;71.70;27.52;;;8.30;99.90;;;;;;5047087;28;20325;-72
2021/11/14 05:33:37;;;;;;;61.70;24.30;;;8.30;99.90;;;;;;5048897;28;20036;-73
2021/11/14 05:36:03;;;;;;;61.22;24.63;;;8.40;99.90;;;;;;5043897;28;20387;-73
2021/11/14 05:38:29;;;;;;;59.72;24.73;;;8.40;99.90;;;;;;5044833;28;20069;-73
2021/11/14 05:40:55;;;;;;;69.50;26.88;;;8.40;99.90;;;;;;5046082;28;20329;-73
2021/11/14 05:43:21;;;;;;;67.57;26.38;;;8.40;99.90;;;;;;5047632;28;20055;-73
2021/11/14 05:45:46;;;;;;;68.63;27.27;;;8.40;99.90;;;;;;5047072;28;20032;-73
2021/11/14 05:48:13;;;;;;;66.45;25.27;;;8.40;99.90;;;;;;5050699;28;20119;-73
2021/11/14 05:50:39;;;;;;;61.13;25.58;;;8.40;99.90;;;;;;5047515;28;20443;-73
2021/11/14 05:53:06;;;;;;;61.65;25.25;;;8.40;99.90;;;;;;5048396;28;20029;-73
2021/11/14 05:55:33;;;;;;;71.75;28.05;;;8.40;99.90;;;;;;5046196;28;20102;-73
2021/11/14 05:58:03;;;;;;;70.85;27.60;;;8.40;99.90;;;;;;5047753;28;20048;-73
2021/11/14 06:03:12;;;;;;;72.57;27.30;;;8.40;99.90;;;;;;5043371;28;20093;-73
2021/11/14 06:05:38;;;;;;;;;;;8.40;99.90;;;;;;5047114;28;20395;-73
2021/11/14 06:08:05;;;;;;;69.97;27.58;;;8.40;99.90;;;;;;5046284;28;19916;-73
2021/11/14 06:10:33;;;;;;;78.28;30.52;;;8.40;99.90;;;;;;5048004;28;20028;-74
2021/11/14 06:12:59;;;;;;;74.38;29.80;;;8.40;99.90;;;;;;5048245;28;20025;-73
2021/11/14 06:15:24;;;;;;;79.18;31.15;;;8.40;99.90;;;;;;5043420;28;20446;-72
2021/11/14 06:17:50;;;;;;;79.63;31.42;;;8.40;99.90;;;;;;5047915;28;20036;-73
2021/11/14 06:20:18;;;;;;;79.43;31.60;;;8.40;99.90;;;;;;5044774;28;20021;-73
2021/11/14 06:22:44;;;;;;;73.07;29.60;;;8.50;99.90;;;;;;5047637;28;20041;-73
2021/11/14 06:25:11;;;;;;;80.75;31.25;;;8.50;99.90;;;;;;5046958;28;20029;-73
2021/11/14 06:27:38;;;;;;;94.25;36.03;;;8.50;99.90;;;;;;5046251;28;20037;-73
2021/11/14 06:30:06;;;;;;;90.90;34.72;;;8.40;99.90;;;;;;5045812;28;20032;-73
2021/11/14 06:32:32;;;;;;;87.88;35.95;;;8.40;99.90;;;;;;5048524;28;20029;-73
2021/11/14 06:34:59;;;;;;;78.70;32.75;;;8.40;99.90;;;;;;5042908;28;20057;-73
2021/11/14 06:37:26;;;;;;;75.70;33.08;;;8.40;99.90;;;;;;5042667;28;20113;-73
2021/11/14 06:39:52;;;;;;;88.80;35.78;;;8.40;99.90;;;;;;5046181;28;20513;-73
2021/11/14 06:42:17;;;;;;;82.05;33.67;;;8.40;99.90;;;;;;5048794;28;20198;-73
2021/11/14 06:44:44;;;;;;;79.38;33.13;;;8.40;99.90;;;;;;5048571;28;20029;-73
2021/11/14 06:47:14;;;;;;;70.63;33.53;;;8.40;99.90;;;;;;5044569;28;20497;-73
2021/11/14 06:49:39;;;;;;;75.18;32.67;;;8.40;99.90;;;;;;5044792;28;20518;-73
2021/11/14 06:52:06;;;;;;;74.03;32.55;;;8.40;99.90;;;;;;5046175;28;20180;-73
2021/11/14 06:54:32;;;;;;;89.07;35.65;;;8.40;99.90;;;;;;5047099;28;20029;-73
2021/11/14 06:56:58;;;;;;;78.82;32.28;;;8.40;99.90;;;;;;5044882;28;20025;-73
2021/11/14 06:59:24;;;;;;;70.45;30.90;;;8.40;99.90;;;;;;5048879;28;20025;-73
2021/11/14 07:01:49;;;;;;;81.75;34.28;;;8.40;99.90;;;;;;5041770;28;20040;-73
2021/11/14 07:04:16;;;;;;;76.68;33.72;;;8.40;99.90;;;;;;5047285;28;20395;-73
2021/11/14 07:06:41;;;;;;;70.10;31.50;;;8.40;99.90;;;;;;5044193;28;20541;-73
2021/11/14 07:09:08;;;;;;;73.18;30.98;;;8.40;99.90;;;;;;5044048;28;20037;-73
2021/11/14 07:11:35;;;;;;;75.28;32.75;;;8.40;99.90;;;;;;5041159;28;20033;-73
2021/11/14 07:14:01;;;;;;;78.88;32.70;;;8.50;99.90;;;;;;5047465;28;20017;-73
2021/11/14 07:16:28;;;;;;;73.85;31.15;;;8.50;99.90;;;;;;5045758;28;20511;-73
2021/11/14 07:18:54;;;;;;;75.35;32.10;;;8.40;99.90;;;;;;5045716;28;20395;-73
2021/11/14 07:21:21;;;;;;;74.93;33.53;;;8.40;99.90;;;;;;5044522;28;20151;-72
2021/11/14 07:23:47;;;;;;;77.53;32.72;;;8.50;99.90;;;;;;5043708;28;20030;-73
2021/11/14 07:26:13;;;;;;;76.32;31.52;;;8.50;99.90;;;;;;5045816;28;20037;-72
2021/11/14 07:28:39;;;;;;;72.53;33.17;;;8.50;99.90;;;;;;5044301;28;20037;-73
2021/11/14 07:31:04;;;;;;;67.07;28.48;;;8.50;99.90;;;;;;5044602;28;20493;-73
2021/11/14 07:33:30;;;;;;;70.43;30.98;;;8.50;99.90;;;;;;5046163;28;20022;-73
2021/11/14 07:35:56;;;;;;;65.18;29.33;;;8.50;99.90;;;;;;5043567;28;20516;-73
2021/11/14 07:38:22;;;;;;;75.72;31.42;;;8.50;99.90;;;;;;5048357;28;20047;-73
2021/11/14 07:40:48;;;;;;;66.63;29.83;;;8.50;99.90;;;;;;5040575;28;20104;-73
2021/11/14 07:43:13;;;;;;;70.97;30.65;;;8.50;99.90;;;;;;5042782;28;20049;-73
2021/11/14 07:45:39;;;;;;;64.10;27.83;;;8.50;99.90;;;;;;5040162;28;20490;-73
2021/11/14 07:48:07;;;;;;;62.80;28.52;;;8.50;99.90;;;;;;5044888;28;20366;-73
2021/11/14 07:50:33;;;;;;;71.80;31.48;;;8.50;99.90;;;;;;5044840;28;20070;-72
2021/11/14 07:53:00;;;;;;;72.97;31.58;;;8.50;99.90;;;;;;5043298;28;20033;-73
2021/11/14 07:55:26;;;;;;;66.45;30.50;;;8.50;99.90;;;;;;5047225;28;20506;-73
2021/11/14 07:57:52;;;;;;;68.88;29.38;;;8.50;99.90;;;;;;5042429;28;20479;-73
2021/11/14 08:00:21;;;;;;;75.18;30.55;;;8.60;99.90;;;;;;5042454;28;20028;-73
2021/11/14 08:02:49;;;;;;;74.57;31.88;;;8.60;99.90;;;;;;5043634;28;20039;-73
2021/11/14 08:05:16;;;;;;;75.55;30.33;;;8.60;99.90;;;;;;5041716;28;20040;-74
2021/11/14 08:07:43;;;;;;;72.75;30.38;;;8.60;99.90;;;;;;5046556;28;20029;-73
2021/11/14 08:10:10;;;;;;;67.30;29.52;;;8.60;99.90;;;;;;5047329;28;20025;-73
2021/11/14 08:12:35;;;;;;;71.03;30.80;;;8.60;99.90;;;;;;5041903;28;20078;-73
2021/11/14 08:15:02;;;;;;;73.03;29.75;;;8.70;99.90;;;;;;5043119;28;20547;-73
2021/11/14 08:17:27;;;;;;;77.68;32.20;;;8.70;99.90;;;;;;5046434;28;20331;-73
2021/11/14 08:19:55;;;;;;;76.40;32.28;;;8.70;99.90;;;;;;5045112;28;20029;-73
2021/11/14 08:22:21;;;;;;;73.22;30.83;;;8.70;99.90;;;;;;5040587;28;20029;-73
2021/11/14 08:24:47;;;;;;;72.00;29.10;;;8.70;99.90;;;;;;5042972;28;20481;-74
2021/11/14 08:27:13;;;;;;;73.47;31.50;;;8.60;99.90;;;;;;5046436;28;20028;-73
2021/11/14 08:29:39;;;;;;;79.80;32.58;;;8.60;99.90;;;;;;5046666;28;20082;-73
2021/11/14 08:32:05;;;;;;;73.75;31.58;;;8.70;99.90;;;;;;5043109;28;20383;-73
2021/11/14 08:34:31;;;;;;;77.65;33.30;;;8.70;99.90;;;;;;5045957;28;20040;-73
2021/11/14 08:36:57;;;;;;;71.20;30.55;;;8.70;99.90;;;;;;5047385;28;20038;-73
2021/11/14 08:39:23;;;;;;;71.20;31.42;;;8.70;99.90;;;;;;5043162;28;20430;-73
2021/11/14 08:41:49;;;;;;;70.90;29.02;;;8.70;99.90;;;;;;5044522;28;20029;-73
2021/11/14 08:44:15;;;;;;;73.25;31.55;;;8.70;99.90;;;;;;5042884;28;20029;-73
2021/11/14 08:46:41;;;;;;;72.72;30.00;;;8.70;99.90;;;;;;5041800;28;20025;-73
2021/11/14 08:49:06;;;;;;;69.63;30.42;;;8.80;99.90;;;;;;5047331;28;20025;-73
2021/11/14 08:51:32;;;;;;;69.60;30.42;;;8.80;99.90;;;;;;5042078;28;20140;-74
2021/11/14 08:53:59;;;;;;;69.80;29.17;;;8.80;99.90;;;;;;5044592;28;20025;-74
2021/11/14 08:56:32;;;;;;;60.03;26.38;;;8.90;99.90;;;;;;5047548;28;20025;-73
2021/11/14 08:58:58;;;;;;;61.33;26.67;;;8.90;99.90;;;;;;5047565;28;20036;-73
2021/11/14 09:01:25;;;;;;;60.50;26.27;;;8.90;99.90;;;;;;5049220;28;20017;-74
2021/11/14 09:03:50;;;;;;;55.60;25.45;;;9.00;99.90;;;;;;5047407;28;20086;-74
2021/11/14 09:06:16;;;;;;;59.40;26.02;;;9.00;99.90;;;;;;5049755;28;20060;-74
2021/11/14 09:08:42;;;;;;;52.72;25.10;;;9.10;99.90;;;;;;5051299;28;20090;-74
2021/11/14 09:11:08;;;;;;;52.17;23.35;;;9.10;99.90;;;;;;5047104;28;20029;-74
2021/11/14 09:13:34;;;;;;;54.63;25.17;;;9.10;99.90;;;;;;5050343;28;20027;-74
2021/11/14 09:15:59;;;;;;;51.10;24.02;;;9.10;99.90;;;;;;5053415;28;20028;-74
2021/11/14 09:18:27;;;;;;;52.03;23.10;;;9.20;99.90;;;;;;5049739;28;20048;-74
2021/11/14 09:20:53;;;;;;;55.92;25.55;;;9.20;99.90;;;;;;5046652;28;20037;-73
2021/11/14 09:23:19;;;;;;;53.53;25.60;;;9.20;99.90;;;;;;5047746;28;20068;-74
2021/11/14 09:25:46;;;;;;;57.05;25.33;;;9.10;99.90;;;;;;5051517;28;20056;-74
2021/11/14 09:28:15;;;;;;;64.78;26.73;;;9.10;99.90;;;;;;5048141;28;20171;-74
2021/11/14 09:30:43;;;;;;;60.40;27.10;;;9.10;99.90;;;;;;5047044;28;20038;-73
2021/11/14 09:33:10;;;;;;;64.35;29.20;;;9.10;99.90;;;;;;5046360;28;20057;-74
2021/11/14 09:35:35;;;;;;;62.00;28.45;;;9.10;99.90;;;;;;5050308;28;20033;-74
2021/11/14 09:38:03;;;;;;;57.33;25.75;;;9.10;99.90;;;;;;5047477;28;20033;-73
2021/11/14 09:40:29;;;;;;;52.60;24.77;;;9.10;99.90;;;;;;5043984;28;20029;-73
2021/11/14 09:42:56;;;;;;;59.67;25.25;;;9.10;99.90;;;;;;5044517;28;20029;-73
2021/11/14 09:45:26;;;;;;;62.05;26.77;;;9.10;99.90;;;;;;5047073;28;20041;-73
2021/11/14 09:47:53;;;;;;;54.03;23.42;;;9.10;99.90;;;;;;5051843;28;20025;-74
2021/11/14 09:50:19;;;;;;;57.08;24.98;;;9.10;99.90;;;;;;5046652;28;20052;-74
2021/11/14 09:52:44;;;;;;;55.50;24.25;;;9.00;99.90;;;;;;5048084;28;20025;-74
2021/11/14 09:55:11;;;;;;;52.00;24.08;;;9.00;99.90;;;;;;5044911;28;20100;-74
2021/11/14 09:57:41;;;;;;;55.13;24.75;;;9.00;99.90;;;;;;5044387;28;20536;-75
2021/11/14 10:00:10;;;;;;;57.20;25.00;;;9.00;99.90;;;;;;5045831;28;20435;-74
2021/11/14 10:02:37;;;;;;;50.38;23.08;;;8.90;99.90;;;;;;5047862;28;20112;-74
2021/11/14 10:05:05;;;;;;;52.90;23.73;;;8.90;99.90;;;;;;5047659;28;20546;-74
2021/11/14 10:07:31;;;;;;;48.08;23.48;;;8.90;99.90;;;;;;5049910;28;20388;-74
2021/11/14 10:09:59;;;;;;;50.25;23.30;;;9.00;99.90;;;;;;5042664;28;20575;-74
2021/11/14 10:12:36;;;;;;;47.58;21.58;;;9.00;99.90;;;;;;5044323;28;20025;-74
2021/11/14 10:15:04;;;;;;;49.42;23.98;;;9.00;99.90;;;;;;5046227;28;20568;-74
2021/11/14 10:17:31;;;;;;;61.22;27.75;;;9.00;99.90;;;;;;5047739;28;20029;-73
2021/11/14 10:20:23;;;;;;;55.78;27.27;;;9.10;99.90;;;;;;5050768;28;20532;-73
2021/11/14 10:22:52;;;;;;;58.15;28.23;;;9.10;99.90;;;;;;5050417;28;20094;-74
2021/11/14 10:25:18;;;;;;;55.35;27.55;;;9.10;99.90;;;;;;5043333;28;20032;-74
2021/11/14 10:27:51;;;;;;;59.97;27.92;;;9.10;99.90;;;;;;5046068;28;20511;-74
2021/11/14 10:30:20;;;;;;;57.72;27.70;;;9.20;99.90;;;;;;5045528;28;20040;-74
2021/11/14 10:32:46;;;;;;;71.57;30.27;;;9.20;99.90;;;;;;5048978;28;20028;-74
2021/11/14 10:35:11;;;;;;;63.85;28.63;;;9.30;99.90;;;;;;5048027;28;20037;-74
2021/11/14 10:37:43;;;;;;;69.72;30.63;;;9.30;99.90;;;;;;5047790;28;20390;-74
2021/11/14 10:40:13;;;;;;;68.63;30.08;;;9.30;99.90;;;;;;5049367;28;20520;-74
2021/11/14 10:42:43;;;;;;;62.90;29.63;;;9.20;99.90;;;;;;5047417;28;20491;-74
2021/11/14 10:45:09;;;;;;;60.63;28.45;;;9.30;99.90;;;;;;5037683;28;20414;-75
2021/11/14 10:47:35;;;;;;;65.53;29.52;;;9.30;99.90;;;;;;5045083;28;20036;-75
2021/11/14 10:50:13;;;;;;;64.15;29.90;;;9.40;99.90;;;;;;5044881;28;20025;-73
2021/11/14 10:52:52;;;;;;;74.80;33.42;;;9.40;99.90;;;;;;5046121;28;20047;-73
2021/11/14 10:55:19;;;;;;;62.92;29.90;;;9.40;99.90;;;;;;5045585;28;20131;-74
2021/11/14 10:57:44;;;;;;;61.72;30.25;;;9.40;99.90;;;;;;5043920;28;20375;-73
2021/11/14 11:00:12;;;;;;;68.78;32.22;;;9.50;99.90;;;;;;5043546;28;20040;-68
2021/11/14 11:02:42;;;;;;;63.25;30.23;;;9.50;99.90;;;;;;5043831;28;20060;-72
2021/11/14 11:05:26;;;;;;;62.15;28.60;;;9.50;99.90;;;;;;5041937;28;20542;-72
2021/11/14 11:08:07;;;;;;;60.00;28.23;;;9.50;99.90;;;;;;5046012;28;20032;-72
2021/11/14 11:10:38;;;;;;;62.85;28.08;;;9.50;99.90;;;;;;5046064;28;20025;-72
2021/11/14 11:13:08;;;;;;;60.70;29.07;;;9.50;99.90;;;;;;5047211;28;20017;-73
2021/11/14 11:15:40;;;;;;;63.17;27.02;;;9.50;99.90;;;;;;5045944;28;20029;-73
2021/11/14 11:18:08;;;;;;;56.22;26.73;;;9.60;99.90;;;;;;5046646;28;20115;-73
2021/11/14 11:20:34;;;;;;;56.10;26.27;;;9.50;99.90;;;;;;5044247;28;20029;-72
2021/11/14 11:23:07;;;;;;;58.83;27.08;;;9.50;99.90;;;;;;5043467;28;20029;-72
2021/11/14 11:25:41;;;;;;;61.75;27.42;;;9.50;99.90;;;;;;5043066;28;20043;-72
2021/11/14 11:28:15;;;;;;;62.67;28.63;;;9.50;99.90;;;;;;5048043;28;20091;-72
2021/11/14 11:30:45;;;;;;;62.55;29.30;;;9.40;99.90;;;;;;5045748;28;20390;-72
2021/11/14 11:33:10;;;;;;;60.05;24.85;;;9.40;99.90;;;;;;5044947;28;20052;-72
2021/11/14 11:35:36;;;;;;;55.05;27.00;;;9.40;99.90;;;;;;5047037;28;20059;-72
2021/11/14 11:38:03;;;;;;;60.42;26.88;;;9.40;99.90;;;;;;5048471;28;20188;-73
2021/11/14 11:40:29;;;;;;;57.30;26.10;;;9.30;99.90;;;;;;5043525;28;20471;-71
2021/11/14 11:42:55;;;;;;;60.67;25.35;;;9.30;99.90;;;;;;5041546;28;20064;-72
2021/11/14 11:45:31;;;;;;;52.30;24.77;;;9.40;99.90;;;;;;5043944;28;20032;-71
2021/11/14 11:47:58;;;;;;;58.63;26.95;;;9.40;99.90;;;;;;5044364;28;20078;-71
2021/11/14 11:50:28;;;;;;;53.15;25.08;;;9.40;99.90;;;;;;5043940;28;20122;-72
2021/11/14 11:52:54;;;;;;;54.83;25.90;;;9.40;99.90;;;;;;5045321;28;20120;-72
2021/11/14 11:55:22;;;;;;;64.00;27.40;;;9.40;99.90;;;;;;5043081;28;20029;-71
2021/11/14 11:57:49;;;;;;;58.92;25.73;;;9.50;99.90;;;;;;5041890;28;20464;-72
2021/11/14 12:00:16;;;;;;;60.08;26.33;;;9.50;99.90;;;;;;5043975;28;20114;-72
2021/11/14 12:02:42;;;;;;;52.60;24.02;;;9.40;99.90;;;;;;5045629;28;20045;-72
2021/11/14 12:05:11;;;;;;;55.85;23.35;;;9.40;99.90;;;;;;5045588;28;20065;-73
2021/11/14 12:07:48;;;;;;;54.83;25.45;;;9.40;99.90;;;;;;5043546;28;20423;-73
2021/11/14 12:10:24;;;;;;;59.80;26.98;;;9.40;99.90;;;;;;5042174;28;20544;-72
2021/11/14 12:12:55;;;;;;;57.78;25.10;;;9.40;99.90;;;;;;5041054;28;20026;-74
2021/11/14 12:15:30;;;;;;;59.35;25.33;;;9.50;99.90;;;;;;5044156;28;20021;-72
2021/11/14 12:18:07;;;;;;;55.45;22.70;;;9.50;99.90;;;;;;5044694;28;20040;-76
2021/11/14 12:20:50;;;;;;;57.88;24.75;;;9.50;99.90;;;;;;5045108;28;20494;-75
2021/11/14 12:23:27;;;;;;;58.72;23.20;;;9.40;99.90;;;;;;5042567;28;20029;-73
2021/11/14 12:25:55;;;;;;;57.17;24.33;;;9.50;99.90;;;;;;5041965;28;20119;-73
2021/11/14 12:28:27;;;;;;;58.80;23.55;;;9.50;99.90;;;;;;5039416;28;20060;-73
2021/11/14 12:31:04;;;;;;;55.50;23.55;;;9.40;99.90;;;;;;5038242;28;21286;-73
2021/11/14 12:33:35;;;;;;;53.05;22.50;;;9.40;99.90;;;;;;5046641;28;20023;-73
2021/11/14 12:36:09;;;;;;;58.55;22.77;;;9.50;99.90;;;;;;5049301;28;20047;-73
2021/11/14 12:38:36;;;;;;;55.67;23.20;;;9.50;99.90;;;;;;5043483;28;20517;-78
2021/11/14 12:41:05;;;;;;;51.97;23.77;;;9.50;99.90;;;;;;5049336;28;20028;-73